createdAt,value
2022-11-22T00:00:41.020Z,4.25
2022-11-22T00:03:42.025Z,4.68
2022-11-22T00:06:43.002Z,4.55
2022-11-22T00:09:44.028Z,4.15
2022-11-22T00:12:45.026Z,4.13
2022-11-22T00:15:46.000Z,4.07
2022-11-22T00:18:47.028Z,4.30
2022-11-22T00:21:48.009Z,4.22
2022-11-22T00:24:49.018Z,4.40
2022-11-22T00:27:50.000Z,3.17
2022-11-22T00:30:51.047Z,3.88
2022-11-22T00:33:52.067Z,4.35
2022-11-22T00:36:53.033Z,3.70
2022-11-22T00:39:54.051Z,3.53
2022-11-22T00:42:55.031Z,4.28
2022-11-22T00:45:56.038Z,3.60
2022-11-22T00:48:57.023Z,3.00
2022-11-22T00:51:58.053Z,3.78
2022-11-22T00:54:59.036Z,3.85
2022-11-22T00:58:00.049Z,4.47
2022-11-22T01:00:56.819Z,4.10
2022-11-22T01:03:58.070Z,4.43
2022-11-22T01:06:59.052Z,4.10
2022-11-22T01:10:00.089Z,4.35
2022-11-22T01:13:01.028Z,4.43
2022-11-22T01:16:02.065Z,3.75
2022-11-22T01:19:03.054Z,4.25
2022-11-22T01:22:04.021Z,3.05
2022-11-22T01:25:05.053Z,4.78
2022-11-22T01:28:06.026Z,4.07
2022-11-22T01:31:07.089Z,3.75
2022-11-22T01:34:08.045Z,4.60
2022-11-22T01:37:09.030Z,4.57
2022-11-22T01:40:10.056Z,4.32
2022-11-22T01:43:13.069Z,4.65
2022-11-22T01:46:20.057Z,4.22
2022-11-22T01:49:28.482Z,4.88
2022-11-22T01:52:32.084Z,4.28
2022-11-22T01:55:33.099Z,5.05
2022-11-22T01:58:35.051Z,4.53
2022-11-22T02:01:29.139Z,4.63
2022-11-22T02:04:31.062Z,4.72
2022-11-22T02:07:41.121Z,4.82
2022-11-22T02:10:43.069Z,3.95
2022-11-22T02:13:46.055Z,4.32
2022-11-22T02:16:48.064Z,3.97
2022-11-22T02:20:02.087Z,3.67
2022-11-22T02:23:09.065Z,3.80
2022-11-22T02:26:12.060Z,3.15
2022-11-22T02:29:16.096Z,3.88
2022-11-22T02:32:17.066Z,3.50
2022-11-22T02:35:31.076Z,4.00
2022-11-22T02:38:40.100Z,3.38
2022-11-22T02:41:41.112Z,3.15
2022-11-22T02:44:42.106Z,3.88
2022-11-22T02:47:43.070Z,3.17
2022-11-22T02:50:44.113Z,3.60
2022-11-22T02:53:45.107Z,2.80
2022-11-22T02:56:46.062Z,3.50
2022-11-22T02:59:47.085Z,3.58
2022-11-22T03:02:48.099Z,3.10
2022-11-22T03:05:49.092Z,3.33
2022-11-22T03:08:56.077Z,3.53
2022-11-22T03:11:57.063Z,3.50
2022-11-22T03:14:58.099Z,3.28
2022-11-22T03:17:59.068Z,3.60
2022-11-22T03:21:00.096Z,3.53
2022-11-22T03:24:01.080Z,4.32
2022-11-22T03:27:03.152Z,3.45
2022-11-22T03:30:04.102Z,3.90
2022-11-22T03:33:05.093Z,3.50
2022-11-22T03:36:10.110Z,4.57
2022-11-22T03:39:11.115Z,4.50
2022-11-22T03:42:13.628Z,3.65
2022-11-22T03:45:17.120Z,3.60
2022-11-22T03:48:18.122Z,3.65
2022-11-22T03:51:13.086Z,4.05
2022-11-22T03:54:14.110Z,3.88
2022-11-22T03:57:15.111Z,3.67
2022-11-22T04:00:16.117Z,4.15
2022-11-22T04:03:17.147Z,5.10
2022-11-22T04:06:18.103Z,3.67
2022-11-22T04:09:19.195Z,4.05
2022-11-22T04:12:20.122Z,4.88
2022-11-22T04:15:21.127Z,4.53
2022-11-22T04:18:25.148Z,4.53
2022-11-22T04:21:41.117Z,4.72
2022-11-22T04:25:00.145Z,4.32
2022-11-22T04:28:01.103Z,4.30
2022-11-22T04:31:20.128Z,4.68
2022-11-22T04:34:21.128Z,4.05
2022-11-22T04:37:22.100Z,4.13
2022-11-22T04:40:24.120Z,4.80
2022-11-22T04:43:55.122Z,3.30
2022-11-22T04:46:57.120Z,4.80
2022-11-22T04:49:58.107Z,4.28
2022-11-22T04:53:01.114Z,3.95
2022-11-22T04:56:02.208Z,3.75
2022-11-22T04:59:03.135Z,3.83
2022-11-22T05:02:05.123Z,3.33
2022-11-22T05:05:06.182Z,3.95
2022-11-22T05:08:07.129Z,4.05
2022-11-22T05:11:08.134Z,3.63
2022-11-22T05:14:09.166Z,4.97
2022-11-22T05:17:13.160Z,5.20
2022-11-22T05:20:14.144Z,5.00
2022-11-22T05:23:33.148Z,4.90
2022-11-22T05:26:39.125Z,5.70
2022-11-22T05:29:40.179Z,4.63
2022-11-22T05:32:44.145Z,4.85
2022-11-22T05:35:45.163Z,5.18
2022-11-22T05:38:46.182Z,4.43
2022-11-22T05:42:02.182Z,4.55
2022-11-22T05:45:03.149Z,4.30
2022-11-22T05:48:04.128Z,4.50
2022-11-22T05:51:05.160Z,5.20
2022-11-22T05:54:06.155Z,4.32
2022-11-22T05:57:07.152Z,4.38
2022-11-22T06:00:08.141Z,5.35
2022-11-22T06:03:16.141Z,5.22
2022-11-22T06:06:11.144Z,4.68
2022-11-22T06:09:13.163Z,4.10
2022-11-22T06:12:14.136Z,5.18
2022-11-22T06:15:15.181Z,4.88
2022-11-22T06:18:16.152Z,5.35
2022-11-22T06:21:21.152Z,4.80
2022-11-22T06:24:22.166Z,4.38
2022-11-22T06:27:23.148Z,4.63
2022-11-22T06:30:24.182Z,4.97
2022-11-22T06:33:25.164Z,4.88
2022-11-22T06:36:28.170Z,5.00
2022-11-22T06:39:29.626Z,4.53
2022-11-22T06:42:30.162Z,5.25
2022-11-22T06:45:31.166Z,5.55
2022-11-22T06:48:32.174Z,5.20
2022-11-22T06:51:37.178Z,5.05
2022-11-22T06:54:38.174Z,4.85
2022-11-22T06:57:39.180Z,4.85
2022-11-22T07:00:40.180Z,4.10
2022-11-22T07:03:41.192Z,4.70
2022-11-22T07:06:47.166Z,4.68
2022-11-22T07:09:54.972Z,4.90
2022-11-22T07:12:57.168Z,5.25
2022-11-22T07:15:58.184Z,4.07
2022-11-22T07:18:59.174Z,5.15
2022-11-22T07:22:00.186Z,5.03
2022-11-22T07:25:01.180Z,4.72
2022-11-22T07:28:02.200Z,4.45
2022-11-22T07:31:03.182Z,5.28
2022-11-22T07:33:57.189Z,4.38
2022-11-22T07:37:01.401Z,5.55
2022-11-22T07:40:04.228Z,4.78
2022-11-22T07:43:05.189Z,6.25
2022-11-22T07:46:06.207Z,4.70
2022-11-22T07:49:08.223Z,4.93
2022-11-22T07:52:09.167Z,5.22
2022-11-22T07:55:14.048Z,5.55
2022-11-22T07:58:15.189Z,5.20
2022-11-22T08:01:20.255Z,4.88
2022-11-22T08:04:21.198Z,5.60
2022-11-22T08:07:22.255Z,4.88
2022-11-22T08:10:23.204Z,5.22
2022-11-22T08:13:24.210Z,5.07
2022-11-22T08:16:27.201Z,5.75
2022-11-22T08:19:28.603Z,4.57
2022-11-22T08:22:29.206Z,4.20
2022-11-22T08:25:30.232Z,4.40
2022-11-22T08:28:31.208Z,3.22
2022-11-22T08:31:34.191Z,4.32
2022-11-22T08:34:35.237Z,3.50
2022-11-22T08:37:36.210Z,2.60
2022-11-22T08:40:41.010Z,2.85
2022-11-22T08:43:42.209Z,3.17
2022-11-22T08:46:43.228Z,3.00
2022-11-22T08:49:44.231Z,2.95
2022-11-22T08:52:45.254Z,2.92
2022-11-22T08:55:46.224Z,3.08
2022-11-22T08:58:47.253Z,2.72
2022-11-22T09:01:48.306Z,2.60
2022-11-22T09:04:50.220Z,2.58
2022-11-22T09:11:09.238Z,2.30
2022-11-22T09:14:10.214Z,2.60
2022-11-22T09:17:17.534Z,2.58
2022-11-22T09:20:19.236Z,2.15
2022-11-22T09:23:20.223Z,2.70
2022-11-22T09:26:23.244Z,2.55
2022-11-22T09:29:24.229Z,2.33
2022-11-22T09:32:29.372Z,2.20
2022-11-22T09:35:26.217Z,2.33
2022-11-22T09:38:27.252Z,1.92
2022-11-22T09:41:34.218Z,1.92
2022-11-22T09:45:14.235Z,2.60
2022-11-22T09:48:45.242Z,1.73
2022-11-22T09:52:00.223Z,2.33
2022-11-22T09:55:13.228Z,2.00
2022-11-22T09:58:30.252Z,2.10
2022-11-22T10:01:35.302Z,2.00
2022-11-22T10:04:42.252Z,2.38
2022-11-22T10:07:54.308Z,1.50
2022-11-22T10:10:56.244Z,2.05
2022-11-22T10:14:04.269Z,1.70
2022-11-22T10:17:11.243Z,1.55
2022-11-22T10:20:29.282Z,1.63
2022-11-22T10:23:36.274Z,1.23
2022-11-22T10:26:40.256Z,1.60
2022-11-22T10:29:59.254Z,1.25
2022-11-22T10:33:13.256Z,1.60
2022-11-22T10:36:23.251Z,1.65
2022-11-22T10:39:39.662Z,1.75
2022-11-22T10:42:48.280Z,1.70
2022-11-22T10:45:51.245Z,1.88
2022-11-22T10:49:00.292Z,1.92
2022-11-22T10:52:13.246Z,1.30
2022-11-22T10:55:33.292Z,1.60
2022-11-22T10:59:09.267Z,1.58
2022-11-22T11:02:42.266Z,1.40
2022-11-22T11:13:05.257Z,1.40
2022-11-22T11:16:10.281Z,1.70
2022-11-22T11:19:52.276Z,1.00
2022-11-22T11:26:37.268Z,1.10
2022-11-22T11:29:42.266Z,1.13
2022-11-22T11:32:43.260Z,1.20
2022-11-22T11:35:44.312Z,1.40
2022-11-22T11:38:55.361Z,1.25
2022-11-22T11:41:57.274Z,1.10
2022-11-22T11:44:58.272Z,1.40
2022-11-22T11:47:59.296Z,1.02
2022-11-22T11:51:00.279Z,1.05
2022-11-22T11:54:22.310Z,1.23
2022-11-22T11:57:33.272Z,1.48
2022-11-22T12:00:39.305Z,1.10
2022-11-22T12:03:40.306Z,1.33
2022-11-22T12:06:36.281Z,1.35
2022-11-22T12:09:49.420Z,1.20
2022-11-22T12:13:05.287Z,1.05
2022-11-22T12:16:30.287Z,1.35
2022-11-22T12:20:08.448Z,0.93
2022-11-22T12:23:31.291Z,1.27
2022-11-22T12:26:32.312Z,0.88
2022-11-22T12:29:33.306Z,0.98
2022-11-22T12:32:40.280Z,1.15
2022-11-22T12:35:44.287Z,1.25
2022-11-22T12:38:52.519Z,0.80
2022-11-22T12:41:53.325Z,1.08
2022-11-22T12:45:01.323Z,0.90
2022-11-22T12:48:03.351Z,1.00
2022-11-22T12:51:06.297Z,1.02
2022-11-22T12:54:10.304Z,1.23
2022-11-22T12:57:07.355Z,0.93
2022-11-22T13:00:20.316Z,0.90
2022-11-22T13:03:25.307Z,1.23
2022-11-22T13:06:26.431Z,1.10
2022-11-22T13:09:49.315Z,1.08
2022-11-22T13:12:52.310Z,1.30
2022-11-22T13:15:53.332Z,1.20
2022-11-22T13:19:07.340Z,1.30
2022-11-22T13:22:29.337Z,1.30
2022-11-22T13:25:43.347Z,1.10
2022-11-22T13:28:48.315Z,1.13
2022-11-22T13:31:49.332Z,1.02
2022-11-22T13:34:53.315Z,1.15
2022-11-22T13:37:49.341Z,0.73
2022-11-22T13:40:55.808Z,1.00
2022-11-22T13:44:09.316Z,0.80
2022-11-22T13:47:26.312Z,0.80
2022-11-22T13:50:54.352Z,1.10
2022-11-22T13:53:57.619Z,1.00
2022-11-22T13:56:59.398Z,1.08
2022-11-22T14:00:00.327Z,0.98
2022-11-22T14:03:33.338Z,0.80
2022-11-22T14:06:37.348Z,1.02
2022-11-22T14:09:58.346Z,1.02
2022-11-22T14:13:08.335Z,1.00
2022-11-22T14:16:50.349Z,1.10
2022-11-22T14:23:13.322Z,1.13
2022-11-22T14:26:32.368Z,1.10
2022-11-22T14:29:57.371Z,0.80
2022-11-22T14:33:18.363Z,1.10
2022-11-22T14:36:23.429Z,1.33
2022-11-22T14:40:02.368Z,1.00
2022-11-22T14:43:05.388Z,1.10
2022-11-22T14:46:30.516Z,1.30
2022-11-22T14:49:52.382Z,1.50
2022-11-22T14:52:53.367Z,1.20
2022-11-22T14:55:54.479Z,0.90
2022-11-22T14:59:09.377Z,0.90
2022-11-22T15:02:29.416Z,1.30
2022-11-22T15:09:23.698Z,1.08
2022-11-22T15:09:33.324Z,1.10
2022-11-22T15:12:58.350Z,0.88
2022-11-22T15:58:14.381Z,1.60
2022-11-22T16:01:19.880Z,1.33
2022-11-22T16:04:34.424Z,1.40
2022-11-22T16:07:58.507Z,1.20
2022-11-22T16:11:03.600Z,1.40
2022-11-22T16:14:04.454Z,1.33
2022-11-22T16:17:08.400Z,1.27
2022-11-22T16:20:43.423Z,1.50
2022-11-22T16:23:45.417Z,1.55
2022-11-22T16:26:46.378Z,1.90
2022-11-22T16:29:49.425Z,1.52
2022-11-22T16:32:50.384Z,1.63
2022-11-22T16:35:51.405Z,2.08
2022-11-22T16:38:52.404Z,2.05
2022-11-22T16:41:53.644Z,2.03
2022-11-22T16:44:57.248Z,2.20
2022-11-22T16:48:30.317Z,1.90
2022-11-22T16:51:29.391Z,1.80
2022-11-22T16:54:35.396Z,1.80
2022-11-22T16:57:36.422Z,1.90
2022-11-22T17:00:37.433Z,1.42
2022-11-22T17:03:42.406Z,1.60
2022-11-22T17:06:44.410Z,1.20
2022-11-22T17:09:45.388Z,1.38
2022-11-22T17:12:46.421Z,1.20
2022-11-22T17:15:47.402Z,1.70
2022-11-22T17:18:48.401Z,1.70
2022-11-22T17:21:49.390Z,1.85
2022-11-22T17:24:50.404Z,2.00
2022-11-22T17:27:54.103Z,2.20
2022-11-22T17:30:54.416Z,2.00
2022-11-22T17:33:55.432Z,1.73
2022-11-22T17:36:56.445Z,2.13
2022-11-22T17:39:57.407Z,1.88
2022-11-22T17:42:58.406Z,2.22
2022-11-22T17:45:59.417Z,2.35
2022-11-22T17:49:11.232Z,1.95
2022-11-22T17:52:14.433Z,2.25
2022-11-22T17:55:15.418Z,2.10
2022-11-22T17:58:16.453Z,2.50
2022-11-22T18:01:17.418Z,2.10
2022-11-22T18:04:18.423Z,2.47
2022-11-22T18:07:20.461Z,2.58
2022-11-22T18:10:23.437Z,2.70
2022-11-22T18:13:24.557Z,3.22
2022-11-22T18:16:26.411Z,3.30
2022-11-22T18:19:27.435Z,3.53
2022-11-22T18:22:28.427Z,3.72
2022-11-22T18:25:29.451Z,2.85
2022-11-22T18:28:30.439Z,3.25
2022-11-22T18:31:50.833Z,2.60
2022-11-22T18:34:45.439Z,2.13
2022-11-22T18:37:46.473Z,2.80
2022-11-22T18:40:47.434Z,2.80
2022-11-22T18:43:48.469Z,2.42
2022-11-22T18:46:49.452Z,2.13
2022-11-22T18:49:50.481Z,2.58
2022-11-22T18:52:51.427Z,2.33
2022-11-22T18:55:52.470Z,2.97
2022-11-22T18:58:54.481Z,2.88
2022-11-22T19:01:56.454Z,3.00
2022-11-22T19:04:57.451Z,3.25
2022-11-22T19:08:02.432Z,3.10
2022-11-22T19:11:09.455Z,3.42
2022-11-22T19:14:10.454Z,2.85
2022-11-22T19:17:11.458Z,3.15
2022-11-22T19:20:32.126Z,2.88
2022-11-22T19:23:33.456Z,2.83
2022-11-22T19:26:37.438Z,2.83
2022-11-22T19:29:39.494Z,3.70
2022-11-22T19:32:40.469Z,4.30
2022-11-22T19:35:43.635Z,4.03
2022-11-22T19:38:44.473Z,3.70
2022-11-22T19:41:45.445Z,3.97
2022-11-22T19:44:46.460Z,4.35
2022-11-22T19:47:47.463Z,3.92
2022-11-22T19:50:51.474Z,4.40
2022-11-22T19:53:52.473Z,4.68
2022-11-22T19:56:53.487Z,4.25
2022-11-22T19:59:58.663Z,4.03
2022-11-22T20:03:00.489Z,4.57
2022-11-22T20:06:01.463Z,4.32
2022-11-22T20:09:02.490Z,4.55
2022-11-22T20:12:03.455Z,5.30
2022-11-22T20:15:04.509Z,4.68
2022-11-22T20:18:05.457Z,4.15
2022-11-22T20:21:15.511Z,3.78
2022-11-22T20:24:19.461Z,4.07
2022-11-22T20:27:24.652Z,3.97
2022-11-22T20:30:25.458Z,3.92
2022-11-22T20:33:26.470Z,3.85
2022-11-22T20:36:35.471Z,3.10
2022-11-22T20:39:36.469Z,3.80
2022-11-22T20:42:37.492Z,3.75
2022-11-22T20:45:38.476Z,4.07
2022-11-22T20:48:39.517Z,4.60
2022-11-22T20:51:46.469Z,3.53
2022-11-22T20:54:48.491Z,3.50
2022-11-22T20:57:49.493Z,3.67
2022-11-22T21:00:51.537Z,4.00
2022-11-22T21:03:52.695Z,3.85
2022-11-22T21:06:53.543Z,3.78
2022-11-22T21:09:54.504Z,3.50
2022-11-22T21:12:55.476Z,3.58
2022-11-22T21:15:56.528Z,3.53
2022-11-22T21:18:57.498Z,2.97
2022-11-22T21:21:58.513Z,3.00
2022-11-22T21:25:00.496Z,3.58
2022-11-22T21:28:01.518Z,3.90
2022-11-22T21:31:08.491Z,3.45
2022-11-22T21:34:09.496Z,2.90
2022-11-22T21:37:10.530Z,3.05
2022-11-22T21:40:12.513Z,3.80
2022-11-22T21:43:13.497Z,3.67
2022-11-22T21:46:14.519Z,3.58
2022-11-22T21:49:15.499Z,3.35
2022-11-22T21:52:16.480Z,3.30
2022-11-22T21:55:17.537Z,3.75
2022-11-22T21:58:19.521Z,3.55
2022-11-22T22:01:20.659Z,3.75
2022-11-22T22:04:22.515Z,3.50
2022-11-22T22:07:50.693Z,3.33
2022-11-22T22:10:44.541Z,3.58
2022-11-22T22:13:45.510Z,3.95
2022-11-22T22:16:46.527Z,3.53
2022-11-22T22:19:47.543Z,3.63
2022-11-22T22:22:49.505Z,3.83
2022-11-22T22:25:53.523Z,3.80
2022-11-22T22:28:54.498Z,3.20
2022-11-22T22:31:55.534Z,2.63
2022-11-22T22:34:56.527Z,3.47
2022-11-22T22:37:57.518Z,3.95
2022-11-22T22:41:05.535Z,3.60
2022-11-22T22:44:06.502Z,3.33
2022-11-22T22:47:07.541Z,3.20
2022-11-22T22:50:08.544Z,3.08
2022-11-22T22:53:09.556Z,3.92
2022-11-22T22:56:10.548Z,3.33
2022-11-22T22:59:14.558Z,3.20
2022-11-22T23:02:15.776Z,3.55
2022-11-22T23:05:16.545Z,4.38
2022-11-22T23:08:17.531Z,3.45
2022-11-22T23:11:22.574Z,3.60
2022-11-22T23:14:24.528Z,3.17
2022-11-22T23:17:25.550Z,3.50
2022-11-22T23:20:27.539Z,3.55
2022-11-22T23:23:28.548Z,3.88
2022-11-22T23:26:29.579Z,3.47
2022-11-22T23:29:30.908Z,3.90
2022-11-22T23:32:31.630Z,3.20
2022-11-22T23:35:32.546Z,3.28
2022-11-22T23:38:33.554Z,3.38
2022-11-22T23:41:36.567Z,3.60
2022-11-22T23:44:37.548Z,3.83
2022-11-22T23:47:38.548Z,3.00
2022-11-22T23:50:39.565Z,3.28
2022-11-22T23:53:40.544Z,3.47
2022-11-22T23:56:43.593Z,3.08
2022-11-22T23:59:44.545Z,2.63
